Impacts TAF Board
For situational awareness. Not to be used for flight planning purposes.
IDs:

KSEA - Seattle-Tacoma Intl, WA, US

Issued at 2103 UTC 26 Feb 2020
Updated at 2234 UTC 26 Feb 2020
Potential Impact None Slight Moderate High
Time2153Z 26/23Z 27/00Z 27/01Z 27/02Z 27/03Z 27/04Z 27/05Z 27/06Z 27/07Z 27/08Z 27/09Z 27/10Z 27/11Z>>
Type OBS PRVL PRVL PRVL PRVL PRVL PRVL PRVL PRVL PRVL PRVL PRVL PRVL PRVL
VIS 10 >6 >6 >6 >6 >6 >6 >6 >6 >6 >6 >6 >6 >6
CIG 32 20 20 50 50 50 50 50 50 50 20 20 20 20
Cover BKN BKN BKN OVC OVC OVC OVC OVC OVC OVC OVC OVC OVC OVC
FltCat VFR MVFR MVFR VFR VFR VFR VFR VFR VFR VFR MVFR MVFR MVFR MVFR
WX -- -- -- -- -- -- -- -- -- -- -- -- -- --
WDir 140 230 230 180 180 180 180 180 180 180 180 180 180 180
WSpd 6 5 5 3 3 3 3 3 3 3 4 4 4 4
WGst -- -- -- -- -- -- -- -- -- -- -- -- -- --
Raw TAF
KSEA 262103Z 2621/2724 23005KT P6SM FEW015 BKN020 BKN250
  FM270100 18003KT P6SM SCT025 OVC050
  FM270800 18004KT P6SM BKN020 OVC040


Raw METAR
KSEA 262153Z 14006KT 10SM SCT021 BKN032 BKN250 11/05 A3052 RMK AO2 SLP342 T01060050
KSEA 262145Z 14006KT 10SM SCT021 BKN032 BKN250 10/05 A3052 RMK AO2 T01000050
KSEA 262053Z VRB03KT 10SM FEW013 BKN021 BKN250 09/05 A3053 RMK AO2 SLP346 T00940050 50003
KSEA 262020Z VRB04KT 10SM FEW009 BKN015 BKN250 09/06 A3053 RMK AO2 T00890056
KSEA 261953Z 00000KT 10SM FEW009 BKN014 BKN025 09/05 A3055 RMK AO2 SLP352 T00890050

METAR Board
Radar Display
Forecast Discussion
For situational awareness. Not to be used for flight planning purposes.